createdAt,value
2017-02-19T00:00:29.434Z,1.94
2017-02-19T00:01:39.560Z,1.94
2017-02-19T00:02:49.415Z,1.95
2017-02-19T00:03:58.911Z,1.94
2017-02-19T00:05:09.236Z,1.97
2017-02-19T00:06:19.500Z,1.88
2017-02-19T00:07:30.056Z,1.88
2017-02-19T00:08:40.351Z,1.82
2017-02-19T00:09:50.399Z,1.72
2017-02-19T00:11:00.248Z,1.73
2017-02-19T00:12:10.112Z,1.74
2017-02-19T00:13:20.220Z,1.73
2017-02-19T00:14:29.678Z,1.72
2017-02-19T00:15:39.592Z,1.79
2017-02-19T00:16:49.916Z,1.74
2017-02-19T00:17:59.802Z,1.76
2017-02-19T00:19:10.309Z,1.7
2017-02-19T00:20:20.608Z,1.77
2017-02-19T00:21:30.438Z,1.76
2017-02-19T00:22:40.295Z,1.72
2017-02-19T00:23:50.605Z,1.79
2017-02-19T00:25:00.752Z,1.76
2017-02-19T00:26:10.651Z,1.73
2017-02-19T00:27:20.986Z,1.77
2017-02-19T00:28:30.852Z,1.74
2017-02-19T00:29:40.373Z,1.72
2017-02-19T00:30:50.975Z,1.7
2017-02-19T00:32:01.242Z,1.66
2017-02-19T00:33:11.125Z,1.7
2017-02-19T00:34:20.989Z,1.64
2017-02-19T00:35:30.429Z,1.54
2017-02-19T00:36:40.563Z,1.55
2017-02-19T00:37:50.883Z,1.62
2017-02-19T00:39:01.160Z,1.64
2017-02-19T00:40:11.012Z,1.58
2017-02-19T00:41:21.347Z,1.66
2017-02-19T00:42:31.457Z,1.62
2017-02-19T00:43:41.452Z,1.67
2017-02-19T00:44:51.306Z,1.66
2017-02-19T00:46:01.165Z,1.64
2017-02-19T00:47:11.046Z,1.76
2017-02-19T00:48:52.874Z,1.7
2017-02-19T00:50:02.757Z,1.7
2017-02-19T00:51:12.651Z,1.67
2017-02-19T00:52:22.289Z,1.73
2017-02-19T00:53:32.431Z,1.74
2017-02-19T00:54:42.823Z,1.66
2017-02-19T00:55:53.067Z,1.6
2017-02-19T00:57:02.556Z,1.62
2017-02-19T00:58:12.816Z,1.51
2017-02-19T00:59:22.568Z,1.53
2017-02-19T01:00:32.486Z,1.42
2017-02-19T01:01:42.778Z,1.47
2017-02-19T01:02:53.031Z,1.47
2017-02-19T01:04:03.380Z,1.47
2017-02-19T01:05:13.889Z,1.39
2017-02-19T01:06:24.170Z,1.32
2017-02-19T01:07:34.010Z,1.25
2017-02-19T01:08:43.589Z,1.2
2017-02-19T01:09:53.901Z,1.18
2017-02-19T01:11:04.042Z,1.15
2017-02-19T01:12:13.920Z,1.15
2017-02-19T01:13:23.392Z,1.15
2017-02-19T01:14:32.987Z,1.22
2017-02-19T01:15:42.873Z,1.17
2017-02-19T01:16:53.380Z,1.18
2017-02-19T01:18:03.739Z,1.04
2017-02-19T01:19:14.040Z,1.06
2017-02-19T01:20:23.963Z,1.02
2017-02-19T01:21:33.809Z,0.9
2017-02-19T01:22:43.984Z,0.99
2017-02-19T01:23:53.550Z,0.85
2017-02-19T01:25:03.819Z,0.88
2017-02-19T01:26:14.122Z,0.79
2017-02-19T01:27:24.379Z,0.84
2017-02-19T01:28:34.536Z,0.76
2017-02-19T01:29:44.846Z,0.68
2017-02-19T01:30:55.118Z,0.76
2017-02-19T01:32:05.380Z,0.74
2017-02-19T01:33:15.755Z,0.82
2017-02-19T01:34:25.895Z,0.67
2017-02-19T01:35:35.800Z,0.84
2017-02-19T01:36:46.236Z,0.84
2017-02-19T01:37:56.586Z,0.78
2017-02-19T01:39:06.844Z,0.81
2017-02-19T01:40:17.000Z,0.82
2017-02-19T01:41:26.059Z,0.84
2017-02-19T01:42:35.940Z,0.82
2017-02-19T01:43:46.233Z,0.81
2017-02-19T01:44:56.633Z,0.79
2017-02-19T01:46:07.153Z,0.75
2017-02-19T01:47:17.019Z,0.81
2017-02-19T01:48:26.455Z,0.78
2017-02-19T01:49:36.337Z,0.9
2017-02-19T01:50:45.390Z,0.92
2017-02-19T01:51:55.913Z,0.86
2017-02-19T01:53:05.468Z,0.85
2017-02-19T01:54:15.299Z,1
2017-02-19T01:55:25.608Z,1
2017-02-19T01:56:36.133Z,1
2017-02-19T01:57:45.953Z,0.97
2017-02-19T01:58:56.257Z,0.85
2017-02-19T02:00:05.739Z,0.84
2017-02-19T02:01:16.056Z,0.85
2017-02-19T02:02:25.933Z,0.78
2017-02-19T02:03:36.098Z,0.84
2017-02-19T02:04:45.958Z,0.76
2017-02-19T02:05:56.239Z,0.64
2017-02-19T02:07:06.164Z,0.75
2017-02-19T02:08:16.014Z,0.68
2017-02-19T02:09:26.809Z,0.66
2017-02-19T02:10:36.648Z,0.72
2017-02-19T02:11:46.176Z,0.74
2017-02-19T02:12:56.417Z,0.63
2017-02-19T02:14:05.611Z,0.63
2017-02-19T02:15:15.794Z,0.58
2017-02-19T02:16:26.119Z,0.63
2017-02-19T02:17:35.987Z,0.61
2017-02-19T02:18:46.260Z,0.58
2017-02-19T02:19:56.139Z,0.56
2017-02-19T02:21:06.772Z,0.5
2017-02-19T02:22:17.011Z,0.5
2017-02-19T02:23:27.295Z,0.57
2017-02-19T02:24:36.839Z,0.53
2017-02-19T02:25:47.169Z,0.54
2017-02-19T02:26:57.797Z,0.57
2017-02-19T02:28:07.677Z,0.54
2017-02-19T02:29:17.539Z,0.54
2017-02-19T02:30:27.416Z,0.49
2017-02-19T02:31:37.276Z,0.56
2017-02-19T02:32:47.857Z,0.6
2017-02-19T02:33:58.465Z,0.58
2017-02-19T02:35:08.323Z,0.6
2017-02-19T02:36:18.595Z,0.71
2017-02-19T02:37:28.909Z,0.71
2017-02-19T02:38:38.257Z,0.63
2017-02-19T02:39:48.797Z,0.54
2017-02-19T02:40:59.073Z,0.43
2017-02-19T02:42:09.344Z,0.38
2017-02-19T02:43:19.234Z,0.33
2017-02-19T02:44:29.757Z,0.31
2017-02-19T02:45:40.070Z,0.22
2017-02-19T02:46:49.552Z,0.22
2017-02-19T02:47:59.412Z,0.2
2017-02-19T02:49:09.349Z,0.09
2017-02-19T02:50:19.855Z,0.08
2017-02-19T02:51:29.719Z,0.09
2017-02-19T02:52:40.010Z,0.14
2017-02-19T02:53:50.029Z,0.14
2017-02-19T02:55:00.360Z,0.06
2017-02-19T02:56:10.471Z,0.05
2017-02-19T02:57:20.358Z,0.11
2017-02-19T02:58:30.645Z,0.09
2017-02-19T02:59:40.901Z,0.05
2017-02-19T03:00:51.193Z,0.02
2017-02-19T03:02:00.913Z,-0.01
2017-02-19T03:03:10.435Z,-0.01
2017-02-19T03:04:20.311Z,-0.04
2017-02-19T03:05:30.573Z,-0.04
2017-02-19T03:06:40.034Z,-0.15
2017-02-19T03:07:50.629Z,-0.16
2017-02-19T03:09:00.920Z,-0.12
2017-02-19T03:10:10.384Z,-0.13
2017-02-19T03:11:20.382Z,-0.12
2017-02-19T03:12:29.887Z,-0.15
2017-02-19T03:13:40.383Z,-0.16
2017-02-19T03:14:50.302Z,-0.16
2017-02-19T03:16:00.203Z,-0.16
2017-02-19T03:17:10.494Z,-0.15
2017-02-19T03:18:20.865Z,-0.13
2017-02-19T03:19:31.432Z,-0.13
2017-02-19T03:20:41.693Z,-0.13
2017-02-19T03:21:51.547Z,-0.1
2017-02-19T03:23:01.409Z,-0.09
2017-02-19T03:24:10.862Z,-0.1
2017-02-19T03:25:21.048Z,-0.12
2017-02-19T03:26:31.406Z,-0.13
2017-02-19T03:27:41.365Z,-0.15
2017-02-19T03:28:51.235Z,-0.13
2017-02-19T03:30:01.097Z,-0.1
2017-02-19T03:31:10.824Z,-0.15
2017-02-19T03:32:20.741Z,-0.19
2017-02-19T03:33:30.997Z,-0.06
2017-02-19T03:34:40.902Z,-0.07
2017-02-19T03:35:51.185Z,-0.06
2017-02-19T03:37:01.715Z,-0.09
2017-02-19T03:38:11.591Z,-0.07
2017-02-19T03:39:22.014Z,-0.1
2017-02-19T03:40:32.262Z,-0.04
2017-02-19T03:41:42.552Z,0.01
2017-02-19T03:42:53.047Z,-0.01
2017-02-19T03:44:02.484Z,-0.02
2017-02-19T03:45:12.407Z,-0.02
2017-02-19T03:46:22.680Z,0.03
2017-02-19T03:47:32.955Z,0.02
2017-02-19T03:48:43.050Z,0.02
2017-02-19T03:49:53.304Z,-0.06
2017-02-19T03:51:03.190Z,0.08
2017-02-19T03:52:12.724Z,0.05
2017-02-19T03:53:22.593Z,0.16
2017-02-19T03:54:31.911Z,0.16
2017-02-19T03:55:42.174Z,0.03
2017-02-19T03:56:52.018Z,0.09
2017-02-19T03:58:01.961Z,0.03
2017-02-19T03:59:11.811Z,0.05
2017-02-19T04:00:22.330Z,0.09
2017-02-19T04:01:31.451Z,0.05
2017-02-19T04:02:41.336Z,0.14
2017-02-19T04:03:51.580Z,0.05
2017-02-19T04:05:01.991Z,0.09
2017-02-19T04:06:12.195Z,0.08
2017-02-19T04:07:22.091Z,0.01
2017-02-19T04:08:32.368Z,0.03
2017-02-19T04:09:41.025Z,0.02
2017-02-19T04:10:50.905Z,0.08
2017-02-19T04:12:01.408Z,0.02
2017-02-19T04:13:11.254Z,-0.01
2017-02-19T04:14:21.504Z,0.02
2017-02-19T04:15:31.798Z,-0.04
2017-02-19T04:16:42.136Z,-0.01
2017-02-19T04:17:52.681Z,-0.04
2017-02-19T04:19:02.235Z,-0.06
2017-02-19T04:20:12.103Z,-0.02
2017-02-19T04:21:22.015Z,-0.02
2017-02-19T04:22:31.472Z,-0.02
2017-02-19T04:23:42.074Z,-0.01
2017-02-19T04:24:51.909Z,-0.02
2017-02-19T04:26:02.232Z,0.08
2017-02-19T04:27:12.164Z,-0.02
2017-02-19T04:28:22.436Z,0.03
2017-02-19T04:29:32.967Z,0.02
2017-02-19T04:30:42.881Z,0.12
2017-02-19T04:31:53.401Z,0.05
2017-02-19T04:33:03.652Z,0.06
2017-02-19T04:34:13.942Z,0.09
2017-02-19T04:35:24.639Z,0.08
2017-02-19T04:36:35.002Z,0.05
2017-02-19T04:37:44.914Z,-0.01
2017-02-19T04:38:54.813Z,0.02
2017-02-19T04:40:04.705Z,0.09
2017-02-19T04:41:14.871Z,0.02
2017-02-19T04:42:25.157Z,-0.01
2017-02-19T04:43:35.106Z,-0.06
2017-02-19T04:44:44.543Z,-0.17
2017-02-19T04:45:54.443Z,-0.17
2017-02-19T04:47:04.964Z,-0.16
2017-02-19T04:48:14.416Z,-0.13
2017-02-19T04:49:24.703Z,-0.12
2017-02-19T04:50:34.583Z,-0.16
2017-02-19T04:51:44.476Z,-0.16
2017-02-19T04:52:54.594Z,-0.17
2017-02-19T04:54:04.885Z,-0.13
2017-02-19T04:55:14.743Z,-0.22
2017-02-19T04:56:25.010Z,-0.22
2017-02-19T04:57:34.965Z,-0.28
2017-02-19T04:58:45.074Z,-0.25
2017-02-19T04:59:55.329Z,-0.17
2017-02-19T05:01:05.602Z,-0.27
2017-02-19T05:02:15.453Z,-0.3
2017-02-19T05:03:25.312Z,-0.28
2017-02-19T05:04:35.817Z,-0.3
2017-02-19T05:05:45.841Z,-0.35
2017-02-19T05:06:56.121Z,-0.34
2017-02-19T05:08:06.410Z,-0.3
2017-02-19T05:09:16.271Z,-0.35
2017-02-19T05:10:26.786Z,-0.41
2017-02-19T05:11:36.231Z,-0.41
2017-02-19T05:12:46.545Z,-0.48
2017-02-19T05:13:56.377Z,-0.43
2017-02-19T05:15:06.676Z,-0.48
2017-02-19T05:16:17.257Z,-0.43
2017-02-19T05:17:27.100Z,-0.45
2017-02-19T05:18:36.988Z,-0.46
2017-02-19T05:19:47.253Z,-0.46
2017-02-19T05:20:57.153Z,-0.45
2017-02-19T05:22:07.286Z,-0.46
2017-02-19T05:23:17.553Z,-0.49
2017-02-19T05:24:27.814Z,-0.49
2017-02-19T05:25:38.072Z,-0.48
2017-02-19T05:26:47.952Z,-0.46
2017-02-19T05:27:58.441Z,-0.46
2017-02-19T05:29:08.043Z,-0.52
2017-02-19T05:30:18.346Z,-0.45
2017-02-19T05:31:28.201Z,-0.52
2017-02-19T05:32:38.061Z,-0.52
2017-02-19T05:33:48.154Z,-0.45
2017-02-19T05:34:57.612Z,-0.56
2017-02-19T05:36:07.892Z,-0.59
2017-02-19T05:37:18.156Z,-0.52
2017-02-19T05:38:27.662Z,-0.48
2017-02-19T05:39:38.215Z,-0.59
2017-02-19T05:40:48.507Z,-0.56
2017-02-19T05:41:58.786Z,-0.52
2017-02-19T05:43:09.132Z,-0.53
2017-02-19T05:44:19.424Z,-0.63
2017-02-19T05:45:29.530Z,-0.67
2017-02-19T05:46:39.399Z,-0.53
2017-02-19T05:47:49.644Z,-0.6
2017-02-19T05:48:59.135Z,-0.67
2017-02-19T05:50:09.428Z,-0.51
2017-02-19T05:51:19.627Z,-0.55
2017-02-19T05:52:29.899Z,-0.53
2017-02-19T05:53:40.201Z,-0.46
2017-02-19T05:54:50.049Z,-0.48
2017-02-19T05:56:00.553Z,-0.43
2017-02-19T05:57:10.725Z,-0.43
2017-02-19T05:58:20.997Z,-0.43
2017-02-19T05:59:30.843Z,-0.45
2017-02-19T06:00:40.706Z,-0.48
2017-02-19T06:01:51.090Z,-0.43
2017-02-19T06:03:01.645Z,-0.45
2017-02-19T06:04:11.484Z,-0.49
2017-02-19T06:05:21.762Z,-0.45
2017-02-19T06:06:32.081Z,-0.48
2017-02-19T06:07:41.931Z,-0.43
2017-02-19T06:08:52.460Z,-0.53
2017-02-19T06:10:02.782Z,-0.35
2017-02-19T06:11:13.052Z,-0.4
2017-02-19T06:12:22.954Z,-0.41
2017-02-19T06:13:33.245Z,-0.34
2017-02-19T06:14:43.643Z,-0.35
2017-02-19T06:15:54.056Z,-0.35
2017-02-19T06:17:04.362Z,-0.33
2017-02-19T06:18:14.718Z,-0.28
2017-02-19T06:19:25.009Z,-0.31
2017-02-19T06:20:35.550Z,-0.3
2017-02-19T06:21:45.876Z,-0.37
2017-02-19T06:22:55.471Z,-0.41
2017-02-19T06:24:05.328Z,-0.37
2017-02-19T06:25:15.628Z,-0.33
2017-02-19T06:26:25.718Z,-0.35
2017-02-19T06:27:35.603Z,-0.34
2017-02-19T06:28:45.882Z,-0.48
2017-02-19T06:29:56.139Z,-0.27
2017-02-19T06:31:06.416Z,-0.34
2017-02-19T06:32:16.592Z,-0.37
2017-02-19T06:33:26.436Z,-0.31
2017-02-19T06:34:36.731Z,-0.27
2017-02-19T06:35:47.045Z,-0.31
2017-02-19T06:36:56.922Z,-0.31
2017-02-19T06:38:07.455Z,-0.31
2017-02-19T06:39:17.354Z,-0.3
2017-02-19T06:40:27.641Z,-0.25
2017-02-19T06:41:37.168Z,-0.22
2017-02-19T06:42:47.478Z,-0.17
2017-02-19T06:43:57.743Z,-0.15
2017-02-19T06:45:08.009Z,-0.09
2017-02-19T06:46:17.941Z,-0.15
2017-02-19T06:47:27.381Z,-0.15
2017-02-19T06:48:37.693Z,-0.06
2017-02-19T06:49:47.799Z,-0.04
2017-02-19T06:50:58.086Z,-0.02
2017-02-19T06:52:08.396Z,-0.09
2017-02-19T06:53:18.671Z,0.02
2017-02-19T06:54:28.938Z,0.06
2017-02-19T06:55:39.540Z,0.09
2017-02-19T06:56:49.405Z,0.14
2017-02-19T06:57:59.683Z,0.24
2017-02-19T06:59:10.066Z,0.27
2017-02-19T07:00:20.339Z,0.33
2017-02-19T07:01:30.445Z,0.46
2017-02-19T07:02:40.306Z,0.42
2017-02-19T07:03:49.794Z,0.48
2017-02-19T07:05:00.072Z,0.5
2017-02-19T07:06:09.955Z,0.6
2017-02-19T07:07:20.554Z,0.56
2017-02-19T07:08:30.458Z,0.57
2017-02-19T07:09:40.336Z,0.6
2017-02-19T07:10:50.187Z,0.54
2017-02-19T07:11:59.638Z,0.71
2017-02-19T07:13:09.748Z,0.68
2017-02-19T07:14:19.658Z,0.71
2017-02-19T07:15:29.562Z,0.81
2017-02-19T07:16:39.881Z,0.88
2017-02-19T07:17:50.188Z,0.94
2017-02-19T07:19:00.833Z,1.06
2017-02-19T07:20:10.665Z,1.14
2017-02-19T07:21:52.687Z,1.55
2017-02-19T07:23:02.970Z,1.84
2017-02-19T07:24:13.469Z,1.8
2017-02-19T07:25:23.748Z,1.73
2017-02-19T07:26:33.223Z,1.57
2017-02-19T07:27:42.767Z,1.57
2017-02-19T07:28:52.609Z,1.53
2017-02-19T07:30:02.345Z,1.47
2017-02-19T07:31:12.607Z,1.43
2017-02-19T07:32:22.477Z,1.32
2017-02-19T07:33:32.810Z,1.32
2017-02-19T07:34:43.156Z,1.18
2017-02-19T07:35:53.693Z,1.22
2017-02-19T07:37:03.973Z,1.25
2017-02-19T07:38:14.379Z,1.21
2017-02-19T07:39:24.730Z,1.21
2017-02-19T07:40:35.005Z,1.21
2017-02-19T07:41:45.121Z,1.22
2017-02-19T07:42:55.053Z,1.17
2017-02-19T07:44:04.899Z,1.24
2017-02-19T07:45:15.219Z,1.22
2017-02-19T07:46:25.502Z,1.21
2017-02-19T07:47:36.051Z,1.24
2017-02-19T07:48:46.342Z,1.32
2017-02-19T07:49:56.597Z,1.32
2017-02-19T07:51:06.921Z,1.3
2017-02-19T07:52:17.244Z,1.35
2017-02-19T07:53:27.449Z,1.36
2017-02-19T07:54:37.706Z,1.39
2017-02-19T07:55:47.560Z,1.4
2017-02-19T07:56:57.016Z,1.46
2017-02-19T07:58:07.406Z,1.51
2017-02-19T07:59:17.964Z,1.54
2017-02-19T08:00:27.435Z,1.53
2017-02-19T08:01:37.729Z,1.54
2017-02-19T08:02:48.056Z,1.55
2017-02-19T08:03:58.318Z,1.6
2017-02-19T08:05:08.481Z,1.53
2017-02-19T08:06:18.824Z,1.69
2017-02-19T08:07:29.092Z,1.72
2017-02-19T08:08:39.047Z,1.73
2017-02-19T08:09:49.420Z,1.76
2017-02-19T08:10:59.601Z,1.74
2017-02-19T08:12:09.491Z,1.74
2017-02-19T08:13:19.405Z,1.66
2017-02-19T08:14:29.289Z,1.72
2017-02-19T08:15:39.158Z,1.69
2017-02-19T08:16:49.275Z,1.53
2017-02-19T08:17:59.565Z,1.57
2017-02-19T08:19:09.810Z,1.69
2017-02-19T08:20:19.757Z,1.51
2017-02-19T08:21:29.663Z,1.53
2017-02-19T08:22:40.210Z,1.54
2017-02-19T08:23:50.470Z,1.7
2017-02-19T08:25:00.343Z,1.67
2017-02-19T08:26:10.200Z,1.72
2017-02-19T08:27:20.448Z,1.66
2017-02-19T08:28:30.987Z,1.67
2017-02-19T08:29:41.255Z,1.79
2017-02-19T08:30:51.139Z,1.67
2017-02-19T08:32:01.389Z,1.7
2017-02-19T08:33:11.768Z,1.73
2017-02-19T08:34:22.010Z,1.85
2017-02-19T08:35:32.297Z,1.8
2017-02-19T08:36:42.623Z,1.76
2017-02-19T08:37:52.953Z,1.9
2017-02-19T08:39:03.227Z,1.77
2017-02-19T08:40:13.750Z,1.77
2017-02-19T08:41:24.106Z,1.84
2017-02-19T08:42:33.557Z,1.79
2017-02-19T08:43:43.515Z,1.92
2017-02-19T08:44:53.354Z,1.85
2017-02-19T08:46:03.864Z,1.88
2017-02-19T08:47:14.139Z,1.87
2017-02-19T08:48:23.994Z,1.88
2017-02-19T08:49:33.481Z,1.95
2017-02-19T08:50:43.354Z,2
2017-02-19T08:51:53.457Z,2.05
2017-02-19T08:53:03.703Z,2.03
2017-02-19T08:54:13.978Z,2.12
2017-02-19T08:55:24.290Z,2.1
2017-02-19T08:56:34.570Z,2.15
2017-02-19T08:57:44.722Z,2.21
2017-02-19T08:58:54.991Z,2.26
2017-02-19T09:00:05.318Z,2.19
2017-02-19T09:01:15.175Z,2.3
2017-02-19T09:02:25.141Z,2.34
2017-02-19T09:03:35.265Z,2.39
2017-02-19T09:04:45.169Z,2.39
2017-02-19T09:05:55.699Z,2.36
2017-02-19T09:07:05.965Z,2.33
2017-02-19T09:08:15.928Z,2.3
2017-02-19T09:09:25.699Z,2.34
2017-02-19T09:10:36.014Z,2.41
2017-02-19T09:11:45.972Z,2.3
2017-02-19T09:12:56.274Z,2.34
2017-02-19T09:14:06.193Z,2.45
2017-02-19T09:15:16.796Z,2.37
2017-02-19T09:16:27.070Z,2.49
2017-02-19T09:17:37.391Z,2.62
2017-02-19T09:18:47.687Z,2.64
2017-02-19T09:19:57.936Z,2.74
2017-02-19T09:21:08.035Z,2.79
2017-02-19T09:22:18.363Z,2.77
2017-02-19T09:23:28.701Z,2.89
2017-02-19T09:24:38.579Z,2.94
2017-02-19T09:25:48.066Z,3.22
2017-02-19T09:26:58.596Z,3.31
2017-02-19T09:28:08.852Z,3.49
2017-02-19T09:29:19.121Z,3.52
2017-02-19T09:30:29.434Z,3.62
2017-02-19T09:31:39.764Z,3.54
2017-02-19T09:32:49.871Z,3.55
2017-02-19T09:33:59.839Z,3.43
2017-02-19T09:35:09.730Z,3.36
2017-02-19T09:36:20.098Z,3.42
2017-02-19T09:37:30.364Z,3.4
2017-02-19T09:38:40.900Z,3.43
2017-02-19T09:39:51.100Z,3.39
2017-02-19T09:41:01.377Z,3.46
2017-02-19T09:42:11.384Z,3.49
2017-02-19T09:43:21.701Z,3.69
2017-02-19T09:44:32.223Z,3.61
2017-02-19T09:45:42.530Z,3.75
2017-02-19T09:46:52.833Z,3.87
2017-02-19T09:48:03.152Z,3.9
2017-02-19T09:49:13.480Z,4.04
2017-02-19T09:50:23.606Z,4.27
2017-02-19T09:51:33.461Z,4.5
2017-02-19T09:52:43.735Z,4.71
2017-02-19T09:53:54.026Z,5
2017-02-19T09:55:04.312Z,5.14
2017-02-19T09:56:14.971Z,5.36
2017-02-19T09:57:25.272Z,5.31
2017-02-19T09:58:35.549Z,5.25
2017-02-19T09:59:45.457Z,5.44
2017-02-19T10:00:55.349Z,5.51
2017-02-19T10:02:05.897Z,5.65
2017-02-19T10:03:16.167Z,5.77
2017-02-19T10:04:25.638Z,5.77
2017-02-19T10:05:36.339Z,5.67
2017-02-19T10:06:46.808Z,5.59
2017-02-19T10:07:56.928Z,5.56
2017-02-19T10:09:06.865Z,5.58
2017-02-19T10:10:17.246Z,5.43
2017-02-19T10:11:27.545Z,5.4
2017-02-19T10:12:37.413Z,5.28
2017-02-19T10:13:47.992Z,5.35
2017-02-19T10:14:58.350Z,5.59
2017-02-19T10:16:09.087Z,5.71
2017-02-19T10:17:19.424Z,5.83
2017-02-19T10:18:29.371Z,5.91
2017-02-19T10:19:39.900Z,6.06
2017-02-19T10:20:49.820Z,6.16
2017-02-19T10:21:59.835Z,6.05
2017-02-19T10:23:10.158Z,5.9
2017-02-19T10:24:20.563Z,5.88
2017-02-19T10:25:31.104Z,5.77
2017-02-19T10:26:41.485Z,5.69
2017-02-19T10:27:51.815Z,5.67
2017-02-19T10:29:01.310Z,5.58
2017-02-19T10:30:11.622Z,5.64
2017-02-19T10:31:22.182Z,5.58
2017-02-19T10:32:32.459Z,5.56
2017-02-19T10:33:42.331Z,5.64
2017-02-19T10:34:52.589Z,5.77
2017-02-19T10:36:02.473Z,5.93
2017-02-19T10:37:13.008Z,6.03
2017-02-19T10:38:22.928Z,6.06
2017-02-19T10:39:33.266Z,6.34
2017-02-19T10:40:43.260Z,6.52
2017-02-19T10:41:53.173Z,6.56
2017-02-19T10:43:03.705Z,6.59
2017-02-19T10:44:14.000Z,6.9
2017-02-19T10:45:24.291Z,7.13
2017-02-19T10:46:34.627Z,7.36
2017-02-19T10:47:45.066Z,7.73
2017-02-19T10:48:55.579Z,8.13
2017-02-19T10:50:05.847Z,8.53
2017-02-19T10:51:15.835Z,8.74
2017-02-19T10:52:26.179Z,8.95
2017-02-19T10:53:36.079Z,9.02
2017-02-19T10:54:46.875Z,8.98
2017-02-19T10:55:57.159Z,8.98
2017-02-19T10:57:07.455Z,8.83
2017-02-19T10:58:17.732Z,8.53
2017-02-19T10:59:28.027Z,8.4
2017-02-19T11:00:38.566Z,8.15
2017-02-19T11:01:48.575Z,8.05
2017-02-19T11:02:59.013Z,7.95
2017-02-19T11:04:09.389Z,7.73
2017-02-19T11:05:19.271Z,7.64
2017-02-19T11:06:29.807Z,7.51
2017-02-19T11:07:40.105Z,7.36
2017-02-19T11:08:50.423Z,7.37
2017-02-19T11:10:00.790Z,7.34
2017-02-19T11:11:10.739Z,7.7
2017-02-19T11:12:21.459Z,7.9
2017-02-19T11:13:31.947Z,8.27
2017-02-19T11:14:42.262Z,8.42
2017-02-19T11:15:52.703Z,8.6
2017-02-19T11:17:02.986Z,8.89
2017-02-19T11:18:13.606Z,9.25
2017-02-19T11:19:23.559Z,9.52
2017-02-19T11:20:33.909Z,9.96
2017-02-19T11:21:44.222Z,10.18
2017-02-19T11:22:54.538Z,10.32
2017-02-19T11:24:05.045Z,10.57
2017-02-19T11:25:14.925Z,10.59
2017-02-19T11:26:24.394Z,10.85
2017-02-19T11:27:34.265Z,11
2017-02-19T11:28:44.168Z,10.85
2017-02-19T11:29:53.889Z,10.63
2017-02-19T11:31:04.159Z,10.5
2017-02-19T11:32:14.496Z,10.21
2017-02-19T11:33:24.642Z,10.03
2017-02-19T11:34:34.657Z,9.75
2017-02-19T11:35:45.177Z,9.53
2017-02-19T11:36:55.485Z,9.29
2017-02-19T11:38:05.432Z,8.93
2017-02-19T11:39:15.725Z,8.74
2017-02-19T11:40:26.081Z,8.61
2017-02-19T11:41:36.635Z,8.58
2017-02-19T11:42:46.571Z,8.57
2017-02-19T11:43:56.507Z,8.64
2017-02-19T11:45:06.832Z,8.71
2017-02-19T11:46:17.164Z,8.87
2017-02-19T11:47:27.785Z,9
2017-02-19T11:48:38.115Z,9.01
2017-02-19T11:49:48.454Z,9.05
2017-02-19T11:50:58.747Z,8.98
2017-02-19T11:52:08.662Z,9.11
2017-02-19T11:53:18.802Z,9.11
2017-02-19T11:54:29.105Z,9.12
2017-02-19T11:55:39.404Z,9.05
2017-02-19T11:56:49.724Z,9.09
2017-02-19T11:58:00.031Z,9.12
2017-02-19T11:59:10.213Z,8.95
2017-02-19T12:00:20.156Z,8.75
2017-02-19T12:01:30.464Z,8.66
2017-02-19T12:02:40.974Z,8.58
2017-02-19T12:03:51.265Z,8.55
2017-02-19T12:05:01.809Z,8.52
2017-02-19T12:06:12.149Z,8.3
2017-02-19T12:07:22.441Z,8.21
2017-02-19T12:08:32.759Z,7.88
2017-02-19T12:09:43.098Z,7.82
2017-02-19T12:10:53.675Z,7.8
2017-02-19T12:12:03.646Z,7.73
2017-02-19T12:13:14.093Z,7.62
2017-02-19T12:14:24.366Z,7.48
2017-02-19T12:15:34.685Z,7.44
2017-02-19T12:16:45.501Z,7.37
2017-02-19T12:17:55.851Z,7.33
2017-02-19T12:19:05.748Z,7.37
2017-02-19T12:20:16.053Z,7.31
2017-02-19T12:21:26.321Z,7.26
2017-02-19T12:22:36.913Z,7.24
2017-02-19T12:23:47.241Z,7.29
2017-02-19T12:24:57.684Z,7.2
2017-02-19T12:26:08.002Z,7.03
2017-02-19T12:27:18.365Z,7.15
2017-02-19T12:28:28.901Z,7.08
2017-02-19T12:29:39.198Z,6.89
2017-02-19T12:30:49.548Z,6.92
2017-02-19T12:31:59.063Z,6.95
2017-02-19T12:33:09.538Z,6.9
2017-02-19T12:34:20.107Z,6.92
2017-02-19T12:35:30.488Z,6.85
2017-02-19T12:36:40.767Z,6.78
2017-02-19T12:37:51.112Z,6.74
2017-02-19T12:39:01.437Z,6.84
2017-02-19T12:40:12.170Z,6.85
2017-02-19T12:41:22.494Z,6.81
2017-02-19T12:42:32.784Z,6.77
2017-02-19T12:43:42.660Z,6.75
2017-02-19T12:44:52.585Z,6.77
2017-02-19T12:46:02.317Z,6.79
2017-02-19T12:47:12.635Z,6.75
2017-02-19T12:48:22.944Z,6.62
2017-02-19T12:49:33.276Z,6.66
2017-02-19T12:50:43.600Z,6.67
2017-02-19T12:51:54.168Z,6.62
2017-02-19T12:53:04.507Z,6.59
2017-02-19T12:54:14.825Z,6.57
2017-02-19T12:55:25.122Z,6.6
2017-02-19T12:56:35.002Z,6.54
2017-02-19T12:57:45.542Z,6.53
2017-02-19T12:58:55.914Z,6.52
2017-02-19T13:00:06.253Z,6.46
2017-02-19T13:01:16.532Z,6.52
2017-02-19T13:02:26.845Z,6.39
2017-02-19T13:03:37.375Z,6.26
2017-02-19T13:04:47.658Z,6.28
2017-02-19T13:05:57.956Z,6.35
2017-02-19T13:07:08.315Z,6.36
2017-02-19T13:08:18.627Z,6.21
2017-02-19T13:09:29.215Z,6.31
2017-02-19T13:10:39.131Z,6.27
2017-02-19T13:11:49.454Z,6.24
2017-02-19T13:12:59.859Z,6.14
2017-02-19T13:14:09.725Z,6.16
2017-02-19T13:15:20.272Z,6.14
2017-02-19T13:16:30.559Z,6.17
2017-02-19T13:17:41.127Z,6.19
2017-02-19T13:18:51.063Z,6.14
2017-02-19T13:20:00.960Z,6.17
2017-02-19T13:21:11.535Z,6.08
2017-02-19T13:22:21.836Z,6.11
2017-02-19T13:23:32.225Z,6.05
2017-02-19T13:24:42.117Z,6.05
2017-02-19T13:25:52.405Z,6.03
2017-02-19T13:27:03.075Z,6.01
2017-02-19T13:28:13.346Z,5.94
2017-02-19T13:29:23.688Z,5.96
2017-02-19T13:30:34.056Z,5.86
2017-02-19T13:31:44.423Z,5.98
2017-02-19T13:32:55.038Z,5.9
2017-02-19T13:34:05.379Z,5.77
2017-02-19T13:35:15.439Z,5.72
2017-02-19T13:36:25.492Z,5.77
2017-02-19T13:37:35.792Z,5.83
2017-02-19T13:38:46.394Z,5.84
2017-02-19T13:39:55.878Z,5.74
2017-02-19T13:41:05.767Z,5.84
2017-02-19T13:42:16.167Z,5.77
2017-02-19T13:43:26.517Z,5.68
2017-02-19T13:44:37.148Z,5.74
2017-02-19T13:45:47.405Z,5.71
2017-02-19T13:46:57.576Z,5.71
2017-02-19T13:48:07.982Z,5.69
2017-02-19T13:49:18.323Z,5.62
2017-02-19T13:50:28.887Z,5.58
2017-02-19T13:51:38.819Z,5.49
2017-02-19T13:52:49.118Z,5.44
2017-02-19T13:53:59.405Z,5.46
2017-02-19T13:55:09.691Z,5.47
2017-02-19T13:56:19.842Z,5.53
2017-02-19T13:57:30.171Z,5.38
2017-02-19T13:58:40.449Z,5.44
2017-02-19T13:59:50.698Z,5.36
2017-02-19T14:01:00.647Z,5.41
2017-02-19T14:02:11.207Z,5.36
2017-02-19T14:03:21.874Z,5.44
2017-02-19T14:04:32.897Z,5.44
2017-02-19T14:05:43.448Z,5.32
2017-02-19T14:06:53.788Z,5.26
2017-02-19T14:08:04.477Z,5.33
2017-02-19T14:09:14.810Z,5.28
2017-02-19T14:10:25.082Z,5.29
2017-02-19T14:11:35.390Z,5.25
2017-02-19T14:12:45.886Z,5.17
2017-02-19T14:13:57.324Z,5.17
2017-02-19T14:15:07.978Z,5.22
2017-02-19T14:16:18.273Z,5.16
2017-02-19T14:17:28.242Z,5.14
2017-02-19T14:18:38.169Z,5.08
2017-02-19T14:19:48.687Z,5.11
2017-02-19T14:20:58.566Z,5.1
2017-02-19T14:22:08.996Z,5.06
2017-02-19T14:23:19.296Z,5.06
2017-02-19T14:24:29.198Z,5
2017-02-19T14:25:39.764Z,5
2017-02-19T14:26:49.685Z,5.04
2017-02-19T14:27:59.585Z,4.98
2017-02-19T14:29:09.864Z,4.92
2017-02-19T14:30:20.184Z,4.95
2017-02-19T14:31:30.435Z,4.93
2017-02-19T14:32:40.755Z,5.06
2017-02-19T14:33:51.085Z,5
2017-02-19T14:35:01.027Z,4.95
2017-02-19T14:36:11.069Z,4.98
2017-02-19T14:37:21.751Z,4.88
2017-02-19T14:38:32.090Z,4.81
2017-02-19T14:39:41.971Z,4.75
2017-02-19T14:40:51.909Z,4.85
2017-02-19T14:42:01.828Z,4.85
2017-02-19T14:43:12.390Z,4.85
2017-02-19T14:44:22.665Z,4.67
2017-02-19T14:45:32.551Z,4.75
2017-02-19T14:46:42.843Z,4.6
2017-02-19T14:47:53.155Z,4.6
2017-02-19T14:49:03.789Z,4.7
2017-02-19T14:50:13.675Z,4.65
2017-02-19T14:51:24.012Z,4.68
2017-02-19T14:52:34.410Z,4.68
2017-02-19T14:53:44.715Z,4.68
2017-02-19T14:54:55.283Z,4.7
2017-02-19T14:56:05.581Z,4.59
2017-02-19T14:57:15.883Z,4.7
2017-02-19T14:58:25.888Z,4.67
2017-02-19T14:59:36.288Z,4.63
2017-02-19T15:00:46.813Z,4.56
2017-02-19T15:01:57.104Z,4.57
2017-02-19T15:03:07.431Z,4.63
2017-02-19T15:04:17.737Z,4.71
2017-02-19T15:05:28.272Z,4.68
2017-02-19T15:06:38.442Z,4.65
2017-02-19T15:07:48.473Z,4.68
2017-02-19T15:08:58.809Z,4.67
2017-02-19T15:10:08.800Z,4.65
2017-02-19T15:11:19.095Z,4.56
2017-02-19T15:12:29.699Z,4.67
2017-02-19T15:13:39.974Z,4.67
2017-02-19T15:14:50.319Z,4.62
2017-02-19T15:16:00.659Z,4.52
2017-02-19T15:17:10.559Z,4.56
2017-02-19T15:18:20.676Z,4.62
2017-02-19T15:19:30.986Z,4.55
2017-02-19T15:20:41.329Z,4.56
2017-02-19T15:21:51.952Z,4.53
2017-02-19T15:23:02.402Z,4.57
2017-02-19T15:24:12.939Z,4.6
2017-02-19T15:25:23.237Z,4.55
2017-02-19T15:26:33.651Z,4.53
2017-02-19T15:27:43.984Z,4.6
2017-02-19T15:28:54.268Z,4.67
2017-02-19T15:30:04.398Z,4.59
2017-02-19T15:31:14.685Z,4.62